createdAt,value
2022-07-27T00:00:50.570Z,99.90
2022-07-27T00:03:17.464Z,99.90
2022-07-27T00:05:44.176Z,99.90
2022-07-27T00:08:10.900Z,99.90
2022-07-27T00:10:38.185Z,99.90
2022-07-27T00:13:06.163Z,99.90
2022-07-27T00:15:34.342Z,99.90
2022-07-27T00:18:01.178Z,99.90
2022-07-27T00:20:29.339Z,99.90
2022-07-27T00:22:56.850Z,99.90
2022-07-27T00:25:24.523Z,99.90
2022-07-27T00:27:51.309Z,99.90
2022-07-27T00:30:18.471Z,99.90
2022-07-27T00:32:45.252Z,99.90
2022-07-27T00:35:12.520Z,99.90
2022-07-27T00:37:40.156Z,99.90
2022-07-27T00:40:08.167Z,99.90
2022-07-27T00:42:35.376Z,99.90
2022-07-27T00:45:03.166Z,99.90
2022-07-27T00:47:29.967Z,99.90
2022-07-27T00:49:58.325Z,99.90
2022-07-27T00:52:26.233Z,99.90
2022-07-27T00:54:53.213Z,99.90
2022-07-27T00:57:20.169Z,99.90
2022-07-27T00:59:46.903Z,99.90
2022-07-27T01:02:19.507Z,99.90
2022-07-27T01:04:47.520Z,99.90
2022-07-27T01:07:15.323Z,99.90
2022-07-27T01:09:58.194Z,99.90
2022-07-27T01:12:31.449Z,99.90
2022-07-27T01:14:59.411Z,99.90
2022-07-27T01:17:27.516Z,99.90
2022-07-27T01:19:54.251Z,99.90
2022-07-27T01:22:21.012Z,99.90
2022-07-27T01:24:49.478Z,99.90
2022-07-27T01:27:17.009Z,99.90
2022-07-27T01:29:43.794Z,99.90
2022-07-27T01:32:10.693Z,99.90
2022-07-27T01:34:37.464Z,99.90
2022-07-27T01:37:05.178Z,99.90
2022-07-27T01:39:32.723Z,99.90
2022-07-27T01:42:00.484Z,99.90
2022-07-27T01:44:27.414Z,99.90
2022-07-27T01:46:54.203Z,99.90
2022-07-27T01:49:21.071Z,99.90
2022-07-27T01:51:47.873Z,99.90
2022-07-27T01:54:15.074Z,99.90
2022-07-27T01:56:42.122Z,99.90
2022-07-27T01:59:16.347Z,99.90
2022-07-27T02:01:44.553Z,99.90
2022-07-27T02:04:11.564Z,99.90
2022-07-27T02:06:38.328Z,99.90
2022-07-27T02:09:05.031Z,99.90
2022-07-27T02:11:50.389Z,99.90
2022-07-27T02:14:17.063Z,99.90
2022-07-27T02:16:43.913Z,99.90
2022-07-27T02:19:14.719Z,99.90
2022-07-27T02:21:41.800Z,99.90
2022-07-27T02:24:08.660Z,99.90
2022-07-27T02:26:35.348Z,99.90
2022-07-27T02:29:02.021Z,99.90
2022-07-27T02:31:32.866Z,99.90
2022-07-27T02:34:00.168Z,99.90
2022-07-27T02:36:29.284Z,99.90
2022-07-27T02:38:57.340Z,99.90
2022-07-27T02:41:24.511Z,99.90
2022-07-27T02:43:51.376Z,99.90
2022-07-27T02:46:18.197Z,99.90
2022-07-27T02:48:45.154Z,99.90
2022-07-27T02:51:12.161Z,99.90
2022-07-27T02:53:38.904Z,99.90
2022-07-27T02:56:05.761Z,99.90
2022-07-27T02:58:32.516Z,99.90
2022-07-27T03:00:59.315Z,99.90
2022-07-27T03:03:36.458Z,99.90
2022-07-27T03:06:05.680Z,99.90
2022-07-27T03:08:32.350Z,99.90
2022-07-27T03:10:59.064Z,99.90
2022-07-27T03:13:26.584Z,99.90
2022-07-27T03:15:53.341Z,99.90
2022-07-27T03:18:20.611Z,99.90
2022-07-27T03:20:47.460Z,99.90
2022-07-27T03:23:14.211Z,99.90
2022-07-27T03:25:40.936Z,99.90
2022-07-27T03:28:07.641Z,99.90
2022-07-27T03:30:34.394Z,99.90
2022-07-27T03:33:01.179Z,99.90
2022-07-27T03:35:28.177Z,99.90
2022-07-27T03:37:54.990Z,99.90
2022-07-27T03:40:21.756Z,99.90
2022-07-27T03:42:48.464Z,99.90
2022-07-27T03:45:15.176Z,99.90
2022-07-27T03:47:41.932Z,99.90
2022-07-27T03:50:08.868Z,99.90
2022-07-27T03:52:35.570Z,99.90
2022-07-27T03:55:02.360Z,99.90
2022-07-27T03:57:30.217Z,99.90
2022-07-27T03:59:56.951Z,99.90
2022-07-27T04:02:23.761Z,99.90
2022-07-27T04:04:50.525Z,99.90
2022-07-27T04:07:17.228Z,99.90
2022-07-27T04:09:44.654Z,99.90
2022-07-27T04:12:13.987Z,99.90
2022-07-27T04:14:43.305Z,99.90
2022-07-27T04:17:10.015Z,99.90
2022-07-27T04:19:36.810Z,99.90
2022-07-27T04:22:04.105Z,99.90
2022-07-27T04:24:30.830Z,99.90
2022-07-27T04:26:57.547Z,99.90
2022-07-27T04:29:24.626Z,99.90
2022-07-27T04:31:51.444Z,99.90
2022-07-27T04:34:19.343Z,99.90
2022-07-27T04:36:46.061Z,99.90
2022-07-27T04:39:13.142Z,99.90
2022-07-27T04:41:43.100Z,99.90
2022-07-27T04:44:09.777Z,99.90
2022-07-27T04:46:37.186Z,99.90
2022-07-27T04:49:03.945Z,99.90
2022-07-27T04:51:34.509Z,99.90
2022-07-27T04:54:02.125Z,99.90
2022-07-27T04:56:31.853Z,99.90
2022-07-27T04:58:58.550Z,99.90
2022-07-27T05:01:26.683Z,99.90
2022-07-27T05:03:55.147Z,99.90
2022-07-27T05:06:22.028Z,99.90
2022-07-27T05:08:48.725Z,99.90
2022-07-27T05:11:15.408Z,99.90
2022-07-27T05:13:42.217Z,99.90
2022-07-27T05:16:10.618Z,99.90
2022-07-27T05:18:38.825Z,99.90
2022-07-27T05:21:06.520Z,99.90
2022-07-27T05:23:34.065Z,99.90
2022-07-27T05:26:00.777Z,99.90
2022-07-27T05:28:27.715Z,99.90
2022-07-27T05:30:54.449Z,99.90
2022-07-27T05:33:21.269Z,99.90
2022-07-27T05:35:47.980Z,99.90
2022-07-27T05:38:14.647Z,99.90
2022-07-27T05:40:44.578Z,99.90
2022-07-27T05:43:11.324Z,99.90
2022-07-27T05:45:38.258Z,99.90
2022-07-27T05:48:05.376Z,99.90
2022-07-27T05:50:32.414Z,99.90
2022-07-27T05:53:00.622Z,99.90
2022-07-27T05:55:27.435Z,99.90
2022-07-27T05:57:54.119Z,99.90
2022-07-27T06:00:20.899Z,99.90
2022-07-27T06:02:47.684Z,99.90
2022-07-27T06:05:16.545Z,99.90
2022-07-27T06:08:00.214Z,99.90
2022-07-27T06:10:28.846Z,99.90
2022-07-27T06:12:56.241Z,99.90
2022-07-27T06:15:23.982Z,99.90
2022-07-27T06:17:53.905Z,99.90
2022-07-27T06:20:22.162Z,99.90
2022-07-27T06:22:50.936Z,99.90
2022-07-27T06:25:19.263Z,99.90
2022-07-27T06:27:46.034Z,99.90
2022-07-27T06:30:16.173Z,99.90
2022-07-27T06:32:43.793Z,99.90
2022-07-27T06:35:12.013Z,99.90
2022-07-27T06:37:44.231Z,99.90
2022-07-27T06:40:14.599Z,99.90
2022-07-27T06:42:41.721Z,99.90
2022-07-27T06:45:09.553Z,99.90
2022-07-27T06:47:49.725Z,99.90
2022-07-27T06:50:18.455Z,99.90
2022-07-27T06:52:45.257Z,99.90
2022-07-27T06:55:12.451Z,99.90
2022-07-27T06:57:39.285Z,99.90
2022-07-27T07:00:07.075Z,99.90
2022-07-27T07:02:33.819Z,99.90
2022-07-27T07:05:00.506Z,99.90
2022-07-27T07:07:27.220Z,99.90
2022-07-27T07:09:53.940Z,99.90
2022-07-27T07:12:20.681Z,99.90
2022-07-27T07:14:47.382Z,99.90
2022-07-27T07:17:14.129Z,99.90
2022-07-27T07:19:40.902Z,99.90
2022-07-27T07:22:07.595Z,99.90
2022-07-27T07:24:34.592Z,99.90
2022-07-27T07:27:01.283Z,99.90
2022-07-27T07:29:27.949Z,99.90
2022-07-27T07:31:54.694Z,99.90
2022-07-27T07:34:21.462Z,99.90
2022-07-27T07:36:48.175Z,99.90
2022-07-27T07:39:15.289Z,99.90
2022-07-27T07:41:42.186Z,99.90
2022-07-27T07:44:10.029Z,99.90
2022-07-27T07:46:37.080Z,99.90
2022-07-27T07:49:05.357Z,99.90
2022-07-27T07:51:32.150Z,99.90
2022-07-27T07:53:58.948Z,99.90
2022-07-27T07:56:25.772Z,99.90
2022-07-27T07:58:52.587Z,99.90
2022-07-27T08:01:19.401Z,99.90
2022-07-27T08:03:50.586Z,99.90
2022-07-27T08:06:18.197Z,99.90
2022-07-27T08:08:44.887Z,99.90
2022-07-27T08:11:11.598Z,99.90
2022-07-27T08:13:38.289Z,99.90
2022-07-27T08:16:05.408Z,99.90
2022-07-27T08:18:32.244Z,99.90
2022-07-27T08:20:59.071Z,99.90
2022-07-27T08:23:27.082Z,99.90
2022-07-27T08:25:54.544Z,99.90
2022-07-27T08:28:21.497Z,99.90
2022-07-27T08:30:49.286Z,99.90
2022-07-27T08:33:16.859Z,99.90
2022-07-27T08:35:44.559Z,99.90
2022-07-27T08:38:11.409Z,99.90
2022-07-27T08:40:41.983Z,99.90
2022-07-27T08:43:10.727Z,99.90
2022-07-27T08:45:38.269Z,99.90
2022-07-27T08:48:05.863Z,94.80
2022-07-27T08:50:34.844Z,90.10
2022-07-27T08:53:09.549Z,84.90
2022-07-27T08:55:38.782Z,82.00
2022-07-27T08:58:07.155Z,77.60
2022-07-27T09:00:35.937Z,76.70
2022-07-27T09:03:03.292Z,74.60
2022-07-27T09:05:37.154Z,71.60
2022-07-27T09:08:31.620Z,68.90
2022-07-27T09:10:59.757Z,67.00
2022-07-27T09:13:28.057Z,64.40
2022-07-27T09:16:18.571Z,66.10
2022-07-27T09:18:44.540Z,63.30
2022-07-27T09:21:20.964Z,62.00
2022-07-27T09:23:52.246Z,60.80
2022-07-27T09:26:32.593Z,57.80
2022-07-27T09:29:09.613Z,56.20
2022-07-27T09:31:47.826Z,55.30
2022-07-27T09:34:28.311Z,55.10
2022-07-27T09:36:57.889Z,53.40
2022-07-27T09:39:27.133Z,54.70
2022-07-27T09:42:02.808Z,54.30
2022-07-27T09:44:43.916Z,53.00
2022-07-27T09:47:26.878Z,51.80
2022-07-27T09:49:58.225Z,52.60
2022-07-27T09:52:28.198Z,52.20
2022-07-27T09:55:01.606Z,53.90
2022-07-27T09:57:28.338Z,55.20
2022-07-27T10:00:13.761Z,54.50
2022-07-27T10:02:42.829Z,54.30
2022-07-27T10:05:10.331Z,53.50
2022-07-27T10:07:38.545Z,53.60
2022-07-27T10:10:05.950Z,54.20
2022-07-27T10:12:32.879Z,54.70
2022-07-27T10:14:59.597Z,52.80
2022-07-27T10:17:26.933Z,52.50
2022-07-27T10:19:53.832Z,53.80
2022-07-27T10:22:52.667Z,54.90
2022-07-27T10:25:20.474Z,54.70
2022-07-27T10:27:49.293Z,54.70
2022-07-27T10:30:25.025Z,56.00
2022-07-27T10:32:54.573Z,57.30
2022-07-27T10:35:35.319Z,58.80
2022-07-27T10:38:18.177Z,56.00
2022-07-27T10:40:45.031Z,54.20
2022-07-27T10:43:19.964Z,53.10
2022-07-27T10:46:01.509Z,52.60
2022-07-27T10:48:48.287Z,52.90
2022-07-27T10:51:16.579Z,53.80
2022-07-27T10:54:10.905Z,53.30
2022-07-27T10:56:45.867Z,52.00
2022-07-27T10:59:12.608Z,49.60
2022-07-27T11:01:57.360Z,49.70
2022-07-27T11:04:24.636Z,47.60
2022-07-27T11:07:23.556Z,46.50
2022-07-27T11:12:32.115Z,49.40
2022-07-27T11:15:00.966Z,48.60
2022-07-27T11:20:23.745Z,49.70
2022-07-27T11:25:37.247Z,53.70
2022-07-27T11:28:09.559Z,55.90
2022-07-27T11:30:36.496Z,57.50
2022-07-27T11:33:07.234Z,57.90
2022-07-27T11:35:34.156Z,59.70
2022-07-27T11:38:06.017Z,59.10
2022-07-27T11:40:56.842Z,61.50
2022-07-27T11:43:45.153Z,60.50
2022-07-27T11:46:24.440Z,61.60
2022-07-27T11:49:17.570Z,63.50
2022-07-27T11:51:46.952Z,63.90
2022-07-27T11:54:29.751Z,63.80
2022-07-27T11:57:00.610Z,61.40
2022-07-27T11:59:29.304Z,61.20
2022-07-27T12:02:01.021Z,59.70
2022-07-27T12:04:35.503Z,57.70
2022-07-27T12:07:10.923Z,56.70
2022-07-27T12:09:47.863Z,56.70
2022-07-27T12:12:28.613Z,56.20
2022-07-27T12:15:44.743Z,55.90
2022-07-27T12:18:03.828Z,56.00
2022-07-27T12:20:35.761Z,55.30
2022-07-27T12:23:07.097Z,57.00
2022-07-27T12:25:35.306Z,57.30
2022-07-27T12:28:08.347Z,57.30
2022-07-27T12:30:47.186Z,58.50
2022-07-27T12:33:38.905Z,58.60
2022-07-27T12:36:08.389Z,58.10
2022-07-27T12:38:46.075Z,57.40
2022-07-27T12:41:24.925Z,56.40
2022-07-27T12:44:16.793Z,56.30
2022-07-27T12:47:01.945Z,59.10
2022-07-27T12:49:40.807Z,57.00
2022-07-27T12:52:11.001Z,57.40
2022-07-27T12:54:38.323Z,55.90
2022-07-27T12:57:05.238Z,56.00
2022-07-27T12:59:31.993Z,56.10
2022-07-27T13:01:58.803Z,57.60
2022-07-27T13:04:25.813Z,56.00
2022-07-27T13:06:52.502Z,56.20
2022-07-27T13:09:19.203Z,57.60
2022-07-27T13:11:48.075Z,58.80
2022-07-27T13:14:15.305Z,58.70
2022-07-27T13:16:42.050Z,59.10
2022-07-27T13:19:08.917Z,59.80
2022-07-27T13:21:35.716Z,60.60
2022-07-27T13:24:02.851Z,60.10
2022-07-27T13:26:29.560Z,60.90
2022-07-27T13:28:56.275Z,61.20
2022-07-27T13:31:23.040Z,61.40
2022-07-27T13:33:49.758Z,62.10
2022-07-27T13:36:16.769Z,61.90
2022-07-27T13:38:44.087Z,63.20
2022-07-27T13:41:10.967Z,63.00
2022-07-27T13:43:37.701Z,63.60
2022-07-27T13:46:04.913Z,62.70
2022-07-27T13:48:32.565Z,61.20
2022-07-27T13:50:59.393Z,60.00
2022-07-27T13:53:26.376Z,58.70
2022-07-27T13:55:53.119Z,57.00
2022-07-27T13:58:19.904Z,56.00
2022-07-27T14:00:50.438Z,54.80
2022-07-27T14:03:17.523Z,54.20
2022-07-27T14:05:49.085Z,55.40
2022-07-27T14:08:18.031Z,55.20
2022-07-27T14:10:45.191Z,55.90
2022-07-27T14:13:13.978Z,55.60
2022-07-27T14:15:52.943Z,55.10
2022-07-27T14:18:26.085Z,55.90
2022-07-27T14:20:53.617Z,55.80
2022-07-27T14:23:21.002Z,54.90
2022-07-27T14:25:47.931Z,53.30
2022-07-27T14:28:14.783Z,54.00
2022-07-27T14:30:41.595Z,52.90
2022-07-27T14:33:08.358Z,54.70
2022-07-27T14:35:40.298Z,55.70
2022-07-27T14:38:08.139Z,55.70
2022-07-27T14:40:35.380Z,55.30
2022-07-27T14:43:02.193Z,56.40
2022-07-27T14:45:44.458Z,56.50
2022-07-27T14:48:25.061Z,56.20
2022-07-27T14:50:59.743Z,56.80
2022-07-27T14:53:26.547Z,57.30
2022-07-27T14:55:53.230Z,56.60
2022-07-27T14:58:19.940Z,56.60
2022-07-27T15:00:46.744Z,57.30
2022-07-27T15:03:14.805Z,56.50
2022-07-27T15:05:49.762Z,56.30
2022-07-27T15:08:21.242Z,56.60
2022-07-27T15:10:48.850Z,55.50
2022-07-27T15:13:17.085Z,55.10
2022-07-27T15:15:44.039Z,55.50
2022-07-27T15:18:10.806Z,56.30
2022-07-27T15:20:37.546Z,55.80
2022-07-27T15:23:04.481Z,56.60
2022-07-27T15:25:31.292Z,56.90
2022-07-27T15:27:58.287Z,57.10
2022-07-27T15:30:25.204Z,56.50
2022-07-27T15:32:51.898Z,56.70
2022-07-27T15:35:18.699Z,56.70
2022-07-27T15:37:54.157Z,56.40
2022-07-27T15:40:38.812Z,56.30
2022-07-27T15:43:08.559Z,56.50
2022-07-27T15:45:41.023Z,56.30
2022-07-27T15:48:09.443Z,57.00
2022-07-27T15:50:42.127Z,56.80
2022-07-27T15:53:09.746Z,57.20
2022-07-27T15:55:37.686Z,57.50
2022-07-27T15:58:05.907Z,57.90
2022-07-27T16:00:37.120Z,58.50
2022-07-27T16:03:06.492Z,59.20
2022-07-27T16:05:33.289Z,60.20
2022-07-27T16:08:00.000Z,58.90
2022-07-27T16:10:29.513Z,59.20
2022-07-27T16:12:57.351Z,59.10
2022-07-27T16:15:45.121Z,59.20
2022-07-27T16:18:12.191Z,59.40
2022-07-27T16:20:38.980Z,59.30
2022-07-27T16:23:17.657Z,60.20
2022-07-27T16:26:07.495Z,59.80
2022-07-27T16:28:46.914Z,60.00
2022-07-27T16:31:16.445Z,59.80
2022-07-27T16:33:44.460Z,60.80
2022-07-27T16:36:12.454Z,61.30
2022-07-27T16:38:49.574Z,60.50
2022-07-27T16:41:17.399Z,61.20
2022-07-27T16:43:44.519Z,62.10
2022-07-27T16:46:11.423Z,62.80
2022-07-27T16:48:41.945Z,63.10
2022-07-27T16:51:10.968Z,62.00
2022-07-27T16:53:42.445Z,62.10
2022-07-27T16:56:09.684Z,62.10
2022-07-27T16:58:37.364Z,62.50
2022-07-27T17:01:04.571Z,62.10
2022-07-27T17:03:31.486Z,61.70
2022-07-27T17:06:02.211Z,62.30
2022-07-27T17:08:31.889Z,62.00
2022-07-27T17:11:00.505Z,61.70
2022-07-27T17:13:33.775Z,61.90
2022-07-27T17:16:04.037Z,62.90
2022-07-27T17:18:37.178Z,62.90
2022-07-27T17:21:07.474Z,63.70
2022-07-27T17:23:38.019Z,62.50
2022-07-27T17:26:07.226Z,61.80
2022-07-27T17:28:36.748Z,61.80
2022-07-27T17:31:05.648Z,61.80
2022-07-27T17:33:32.581Z,62.40
2022-07-27T17:36:00.063Z,63.20
2022-07-27T17:38:27.166Z,63.60
2022-07-27T17:40:54.667Z,64.30
2022-07-27T17:43:21.385Z,64.40
2022-07-27T17:45:48.558Z,65.10
2022-07-27T17:48:15.428Z,65.10
2022-07-27T17:50:42.181Z,65.00
2022-07-27T17:53:08.911Z,64.40
2022-07-27T17:55:37.853Z,66.10
2022-07-27T17:58:05.174Z,64.00
2022-07-27T18:00:31.957Z,64.70
2022-07-27T18:02:58.729Z,65.50
2022-07-27T18:05:25.543Z,64.30
2022-07-27T18:07:53.551Z,64.70
2022-07-27T18:10:21.007Z,65.10
2022-07-27T18:12:47.787Z,63.00
2022-07-27T18:15:33.716Z,64.30
2022-07-27T18:18:00.662Z,64.40
2022-07-27T18:20:27.592Z,65.00
2022-07-27T18:22:54.322Z,64.30
2022-07-27T18:25:22.084Z,65.70
2022-07-27T18:27:50.085Z,66.60
2022-07-27T18:30:17.659Z,66.70
2022-07-27T18:32:45.504Z,66.60
2022-07-27T18:35:13.013Z,66.70
2022-07-27T18:37:40.129Z,67.70
2022-07-27T18:40:09.068Z,67.30
2022-07-27T18:42:37.194Z,67.80
2022-07-27T18:45:09.242Z,68.10
2022-07-27T18:47:36.752Z,68.40
2022-07-27T18:50:05.153Z,68.90
2022-07-27T18:52:32.033Z,69.20
2022-07-27T18:54:58.924Z,69.10
2022-07-27T18:57:25.700Z,70.10
2022-07-27T18:59:53.550Z,69.90
2022-07-27T19:02:22.539Z,70.10
2022-07-27T19:04:50.726Z,70.90
2022-07-27T19:07:17.719Z,71.30
2022-07-27T19:09:46.597Z,72.40
2022-07-27T19:12:13.389Z,72.10
2022-07-27T19:14:40.196Z,72.80
2022-07-27T19:17:11.867Z,73.40
2022-07-27T19:19:42.002Z,73.80
2022-07-27T19:22:08.728Z,74.20
2022-07-27T19:24:35.448Z,74.80
2022-07-27T19:27:02.323Z,75.60
2022-07-27T19:29:29.119Z,76.20
2022-07-27T19:31:55.953Z,76.70
2022-07-27T19:34:22.885Z,76.70
2022-07-27T19:36:49.790Z,76.90
2022-07-27T19:39:17.010Z,77.00
2022-07-27T19:41:43.810Z,77.60
2022-07-27T19:44:10.548Z,77.80
2022-07-27T19:46:37.792Z,77.60
2022-07-27T19:49:04.859Z,77.80
2022-07-27T19:51:31.793Z,78.60
2022-07-27T19:53:58.619Z,78.80
2022-07-27T19:56:25.507Z,80.90
2022-07-27T19:58:52.251Z,80.80
2022-07-27T20:01:19.157Z,81.90
2022-07-27T20:03:54.360Z,81.50
2022-07-27T20:06:26.129Z,82.60
2022-07-27T20:08:59.554Z,80.10
2022-07-27T20:11:28.353Z,81.30
2022-07-27T20:13:55.207Z,82.00
2022-07-27T20:16:22.046Z,82.80
2022-07-27T20:18:48.816Z,82.20
2022-07-27T20:21:22.836Z,82.70
2022-07-27T20:23:52.406Z,82.90
2022-07-27T20:26:20.181Z,83.50
2022-07-27T20:28:49.252Z,84.00
2022-07-27T20:31:16.150Z,85.10
2022-07-27T20:33:42.927Z,86.30
2022-07-27T20:36:09.665Z,87.00
2022-07-27T20:38:36.376Z,87.60
2022-07-27T20:41:03.147Z,88.10
2022-07-27T20:43:31.050Z,89.10
2022-07-27T20:45:58.079Z,90.10
2022-07-27T20:48:25.111Z,90.40
2022-07-27T20:50:51.904Z,91.00
2022-07-27T20:53:20.323Z,91.50
2022-07-27T20:55:48.048Z,92.70
2022-07-27T20:58:15.036Z,93.20
2022-07-27T21:00:41.801Z,93.80
2022-07-27T21:03:08.668Z,94.20
2022-07-27T21:05:35.443Z,95.00
2022-07-27T21:08:02.241Z,96.70
2022-07-27T21:10:29.031Z,97.00
2022-07-27T21:12:55.798Z,98.40
2022-07-27T21:15:22.632Z,99.40
2022-07-27T21:18:00.629Z,99.90
2022-07-27T21:20:27.601Z,99.90
2022-07-27T21:23:13.039Z,99.90
2022-07-27T21:25:44.022Z,99.90
2022-07-27T21:28:16.838Z,99.90
2022-07-27T21:30:45.263Z,99.90
2022-07-27T21:33:12.087Z,99.90
2022-07-27T21:35:38.976Z,99.90
2022-07-27T21:38:06.196Z,99.90
2022-07-27T21:40:32.994Z,99.90
2022-07-27T21:43:00.921Z,99.90
2022-07-27T21:45:27.838Z,99.90
2022-07-27T21:47:54.672Z,99.90
2022-07-27T21:50:21.440Z,99.90
2022-07-27T21:52:48.175Z,99.90
2022-07-27T21:55:18.306Z,99.90
2022-07-27T21:57:49.626Z,99.90
2022-07-27T22:00:20.704Z,99.90
2022-07-27T22:02:48.729Z,99.90
2022-07-27T22:05:15.732Z,99.90
2022-07-27T22:07:42.617Z,99.90
2022-07-27T22:10:10.044Z,99.90
2022-07-27T22:12:36.829Z,99.90
2022-07-27T22:15:03.829Z,99.90
2022-07-27T22:17:30.528Z,99.90
2022-07-27T22:19:57.265Z,99.90
2022-07-27T22:22:24.234Z,99.90
2022-07-27T22:24:51.056Z,99.90
2022-07-27T22:27:17.959Z,99.90
2022-07-27T22:29:45.818Z,99.90
2022-07-27T22:32:15.715Z,99.90
2022-07-27T22:34:43.282Z,99.90
2022-07-27T22:37:10.770Z,99.90
2022-07-27T22:39:41.775Z,99.90
2022-07-27T22:42:09.972Z,99.90
2022-07-27T22:44:38.077Z,99.90
2022-07-27T22:47:05.595Z,99.90
2022-07-27T22:49:35.049Z,99.90
2022-07-27T22:52:03.323Z,99.90
2022-07-27T22:54:33.356Z,99.90
2022-07-27T22:57:00.378Z,99.90
2022-07-27T22:59:27.075Z,99.90
2022-07-27T23:01:53.923Z,99.90
2022-07-27T23:04:20.699Z,99.90
2022-07-27T23:06:47.546Z,99.90
2022-07-27T23:09:14.989Z,99.90
2022-07-27T23:11:42.133Z,99.90
2022-07-27T23:14:08.944Z,99.90
2022-07-27T23:16:35.752Z,99.90
2022-07-27T23:19:02.656Z,99.90
2022-07-27T23:21:29.419Z,99.90
2022-07-27T23:23:56.253Z,99.90
2022-07-27T23:26:26.148Z,99.90
2022-07-27T23:28:53.828Z,99.90
2022-07-27T23:31:21.207Z,99.90
2022-07-27T23:33:48.279Z,99.90
2022-07-27T23:36:15.773Z,99.90
2022-07-27T23:38:42.774Z,99.90
2022-07-27T23:41:09.513Z,99.90
2022-07-27T23:43:36.267Z,99.90
2022-07-27T23:46:04.721Z,99.90
2022-07-27T23:48:31.460Z,99.90
2022-07-27T23:50:58.532Z,99.90
2022-07-27T23:53:25.259Z,99.90
2022-07-27T23:55:52.691Z,99.90
2022-07-27T23:58:19.402Z,99.90
